Time;durP1;ratioP1;P1;durP2;ratioP2;P2;SDS_P1;SDS_P2;PMS_P1;PMS_P2;Temp;Humidity;BMP_temperature;BMP_pressure;BME280_temperature;BME280_humidity;BME280_pressure;Samples;Min_cycle;Max_cycle;Signal;HPM_P1;HPM_P2
2022/01/25 00:08:38;;;;;;;11.45;6.43;;;6.10;90.20;;;;;;5017401;28;20547;-80
2022/01/25 00:25:09;;;;;;;10.65;5.47;;;6.00;90.20;;;;;;5021067;28;20061;-80
2022/01/25 00:27:50;;;;;;;10.40;6.28;;;6.00;90.20;;;;;;5018529;28;20083;-80
2022/01/25 00:30:29;;;;;;;10.88;5.95;;;6.00;90.20;;;;;;5035133;28;20478;-80
2022/01/25 00:32:56;;;;;;;11.10;5.70;;;6.00;90.20;;;;;;5020368;28;20417;-80
2022/01/25 00:35:23;;;;;;;10.15;6.30;;;6.00;90.20;;;;;;5018379;28;20050;-80
2022/01/25 00:37:51;;;;;;;13.32;7.13;;;6.00;90.20;;;;;;5018578;28;20045;-80
2022/01/25 00:40:19;;;;;;;11.63;6.03;;;6.00;90.20;;;;;;5034822;28;20050;-80
2022/01/25 00:42:46;;;;;;;11.40;6.70;;;6.00;90.20;;;;;;5018509;28;20055;-79
2022/01/25 00:45:15;;;;;;;14.65;7.72;;;6.00;90.20;;;;;;5018342;28;20041;-80
2022/01/25 00:47:47;;;;;;;10.85;6.10;;;6.00;90.10;;;;;;5034426;28;20045;-80
2022/01/25 00:50:16;;;;;;;11.75;6.45;;;6.00;90.10;;;;;;5003309;28;20541;-80
2022/01/25 00:55:13;;;;;;;11.60;6.75;;;6.00;90.10;;;;;;5034524;28;20037;-80
2022/01/25 00:57:40;;;;;;;12.18;6.80;;;5.90;90.10;;;;;;5018127;28;20096;-80
2022/01/25 01:00:10;;;;;;;11.02;6.55;;;5.90;90.10;;;;;;5034363;28;20041;-79
2022/01/25 01:02:37;;;;;;;10.90;6.75;;;5.90;90.10;;;;;;5017827;28;20052;-79
2022/01/25 01:05:05;;;;;;;12.70;6.03;;;5.90;90.10;;;;;;5018172;28;20489;-80
2022/01/25 01:07:32;;;;;;;10.57;6.47;;;5.90;90.10;;;;;;5001894;28;20045;-80
2022/01/25 01:10:00;;;;;;;10.55;5.78;;;5.90;90.10;;;;;;5001771;28;20045;-80
2022/01/25 01:15:13;;;;;;;10.48;6.25;;;5.90;90.10;;;;;;5034100;28;20045;-79
2022/01/25 01:31:50;;;;;;;10.48;6.63;;;5.90;90.10;;;;;;5033191;28;20034;-79
2022/01/25 01:34:50;;;;;;;10.75;6.05;;;5.90;90.10;;;;;;5033832;28;20115;-80
2022/01/25 01:43:02;;;;;;;9.32;4.63;;;5.90;90.00;;;;;;5005760;28;20084;-80
2022/01/25 01:48:25;;;;;;;9.88;4.85;;;5.90;90.00;;;;;;5033377;28;20437;-79
2022/01/25 01:50:53;;;;;;;9.23;4.68;;;5.90;90.00;;;;;;5033362;28;20508;-79
2022/01/25 01:53:20;;;;;;;9.65;4.85;;;5.90;90.00;;;;;;5016862;28;20046;-79
2022/01/25 01:55:47;;;;;;;9.50;5.45;;;5.90;90.00;;;;;;5033134;28;20696;-80
2022/01/25 01:58:15;;;;;;;9.57;5.25;;;5.90;90.00;;;;;;5016670;28;20144;-80
2022/01/25 02:00:46;;;;;;;9.15;5.00;;;5.90;90.00;;;;;;5016308;28;20095;-80
2022/01/25 02:03:14;;;;;;;9.20;4.60;;;5.90;90.00;;;;;;5016692;28;20073;-79
2022/01/25 02:05:42;;;;;;;10.18;5.50;;;5.90;90.00;;;;;;5000408;28;20088;-80
2022/01/25 02:08:09;;;;;;;8.73;5.10;;;5.90;89.90;;;;;;5033014;28;20493;-80
2022/01/25 02:10:39;;;;;;;10.25;5.85;;;5.90;90.00;;;;;;5001007;28;20520;-80
2022/01/25 02:13:09;;;;;;;9.73;5.43;;;5.90;90.00;;;;;;5016397;28;20073;-79
2022/01/25 02:15:38;;;;;;;8.80;4.82;;;5.90;90.00;;;;;;5016528;28;20505;-80
2022/01/25 02:23:41;;;;;;;11.68;6.20;;;5.80;89.90;;;;;;5032846;28;20048;-79
2022/01/25 02:26:10;;;;;;;10.23;6.28;;;5.80;89.90;;;;;;5016459;28;20045;-79
2022/01/25 02:28:39;;;;;;;9.82;5.78;;;5.80;89.80;;;;;;5016220;28;20493;-80
2022/01/25 02:31:09;;;;;;;9.02;5.18;;;5.80;89.80;;;;;;5032672;28;20041;-79
2022/01/25 02:33:37;;;;;;;9.57;4.72;;;5.80;90.10;;;;;;5000516;28;20152;-79
2022/01/25 02:36:08;;;;;;;9.30;4.93;;;5.80;89.80;;;;;;5032878;28;20383;-79
2022/01/25 02:38:36;;;;;;;8.90;5.00;;;5.80;89.80;;;;;;5016201;28;20045;-79
2022/01/25 02:41:04;;;;;;;9.70;4.95;;;5.80;89.80;;;;;;4999974;28;20410;-79
2022/01/25 02:43:34;;;;;;;9.15;4.93;;;5.80;89.80;;;;;;5016050;28;20413;-80
2022/01/25 02:46:21;;;;;;;9.75;5.05;;;5.80;89.70;;;;;;5000205;28;20052;-80
2022/01/25 02:48:57;;;;;;;9.20;4.72;;;5.80;89.70;;;;;;5002917;28;20046;-80
2022/01/25 02:51:31;;;;;;;9.30;5.15;;;5.80;89.70;;;;;;5015928;28;20038;-79
2022/01/25 02:53:58;;;;;;;9.23;4.93;;;5.80;89.70;;;;;;5032396;28;20466;-79
2022/01/25 02:56:26;;;;;;;9.88;5.05;;;5.80;89.70;;;;;;5015890;28;20132;-79
2022/01/25 02:58:55;;;;;;;9.65;5.05;;;5.80;89.70;;;;;;4999588;28;20099;-80
2022/01/25 03:01:23;;;;;;;9.40;4.45;;;5.80;89.70;;;;;;5032201;28;20042;-79
2022/01/25 03:03:50;;;;;;;10.43;5.53;;;5.80;89.70;;;;;;5032045;28;20045;-79
2022/01/25 03:06:20;;;;;;;9.30;4.72;;;5.80;89.70;;;;;;5016127;28;20037;-80
2022/01/25 03:08:48;;;;;;;10.68;5.38;;;5.80;89.70;;;;;;4999556;28;20049;-80
2022/01/25 03:11:22;;;;;;;11.73;5.95;;;5.80;89.70;;;;;;5016178;28;20041;-79
2022/01/25 03:13:53;;;;;;;11.40;5.38;;;5.80;89.70;;;;;;5016090;28;20092;-79
2022/01/25 03:16:34;;;;;;;12.43;6.55;;;5.80;89.60;;;;;;5015966;28;20136;-80
2022/01/25 03:19:27;;;;;;;10.25;5.75;;;5.80;89.60;;;;;;5032170;28;20045;-79
2022/01/25 03:21:51;;;;;;;11.13;5.47;;;5.80;89.60;;;;;;5031838;28;20103;-80
2022/01/25 03:24:18;;;;;;;13.25;6.20;;;5.80;89.60;;;;;;5015850;28;20064;-80
2022/01/25 03:26:45;;;;;;;12.23;6.00;;;5.80;89.60;;;;;;5015412;28;20087;-80
2022/01/25 03:29:12;;;;;;;11.73;6.15;;;5.80;89.60;;;;;;5015405;28;20041;-80
2022/01/25 03:31:40;;;;;;;12.05;6.38;;;5.80;89.50;;;;;;5015367;28;20397;-79
2022/01/25 03:34:08;;;;;;;15.60;8.60;;;5.70;89.50;;;;;;5034513;28;20167;-80
2022/01/25 03:36:35;;;;;;;17.75;7.88;;;5.70;89.50;;;;;;5035064;28;20424;-80
2022/01/25 03:39:05;;;;;;;14.77;8.15;;;5.70;89.40;;;;;;5002421;28;20045;-79
2022/01/25 03:41:33;;;;;;;13.60;6.38;;;5.70;89.40;;;;;;5034879;28;20107;-79
2022/01/25 03:44:00;;;;;;;16.15;7.75;;;5.70;90.00;;;;;;5034864;28;20049;-80
2022/01/25 03:51:49;;;;;;;15.80;7.40;;;5.70;89.40;;;;;;5052361;28;20045;-79
2022/01/25 03:54:17;;;;;;;12.52;6.30;;;5.70;89.40;;;;;;5019237;28;20053;-80
2022/01/25 03:56:45;;;;;;;14.65;6.93;;;5.70;89.40;;;;;;5006503;28;20037;-80
2022/01/25 03:59:13;;;;;;;13.30;6.28;;;5.70;89.40;;;;;;5038823;28;20485;-79
2022/01/25 04:01:40;;;;;;;14.43;6.63;;;5.70;89.40;;;;;;5022526;28;20049;-79
2022/01/25 04:04:11;;;;;;;13.48;6.20;;;5.70;89.40;;;;;;5039050;28;20084;-79
2022/01/25 04:06:42;;;;;;;11.35;6.18;;;5.70;89.30;;;;;;5039012;28;20056;-79
2022/01/25 04:09:10;;;;;;;12.45;5.90;;;5.70;89.30;;;;;;5022930;28;20440;-80
2022/01/25 04:11:37;;;;;;;12.23;6.30;;;5.70;89.30;;;;;;5038812;28;20041;-80
2022/01/25 04:14:05;;;;;;;14.98;7.18;;;5.70;89.30;;;;;;5021974;28;20045;-80
2022/01/25 04:16:39;;;;;;;12.85;6.43;;;5.70;89.30;;;;;;5022558;28;20041;-80
2022/01/25 04:19:13;;;;;;;14.05;7.00;;;5.70;89.30;;;;;;5022359;28;20057;-79
2022/01/25 04:24:41;;;;;;;12.90;6.55;;;5.70;89.30;;;;;;5023191;28;20053;-79
2022/01/25 04:27:31;;;;;;;11.88;5.90;;;5.70;89.30;;;;;;5018544;28;20052;-80
2022/01/25 04:29:59;;;;;;;10.90;6.05;;;5.70;89.30;;;;;;5021679;28;20041;-80
2022/01/25 04:32:44;;;;;;;13.70;6.93;;;5.70;89.30;;;;;;5038201;28;20068;-80
2022/01/25 04:35:27;;;;;;;13.68;6.65;;;5.70;89.20;;;;;;5021908;28;20049;-80
2022/01/25 04:49:22;;;;;;;15.38;7.28;;;5.70;89.20;;;;;;5037811;28;20048;-80
2022/01/25 04:59:40;;;;;;;12.60;6.63;;;5.60;89.40;;;;;;5037142;28;20137;-80
2022/01/25 05:02:27;;;;;;;15.75;7.28;;;5.60;89.40;;;;;;5022597;28;20080;-80
2022/01/25 05:05:01;;;;;;;14.98;7.30;;;5.60;89.40;;;;;;5021047;28;20513;-79
2022/01/25 05:10:07;;;;;;;12.80;6.82;;;5.60;89.30;;;;;;5022691;28;20130;-79
2022/01/25 05:12:45;;;;;;;14.18;7.32;;;5.60;89.30;;;;;;5030979;28;20072;-79
2022/01/25 05:18:22;;;;;;;16.15;7.53;;;5.60;89.40;;;;;;5051952;28;20131;-79
2022/01/25 05:23:35;;;;;;;14.07;6.55;;;5.60;89.40;;;;;;5043350;28;20051;-79
2022/01/25 05:26:02;;;;;;;13.85;6.95;;;5.60;89.40;;;;;;5040635;28;20053;-79
2022/01/25 05:28:29;;;;;;;14.13;7.28;;;5.60;89.30;;;;;;5040677;28;20044;-80
2022/01/25 05:30:56;;;;;;;16.85;8.73;;;5.50;89.30;;;;;;5024337;28;20047;-80
2022/01/25 05:33:23;;;;;;;16.70;8.13;;;5.60;89.30;;;;;;5056842;28;20048;-79
2022/01/25 05:35:50;;;;;;;17.90;8.30;;;5.60;89.30;;;;;;5056355;28;20045;-79
2022/01/25 05:38:17;;;;;;;14.95;7.50;;;5.50;89.20;;;;;;5023702;28;20044;-80
2022/01/25 05:40:48;;;;;;;15.43;8.35;;;5.50;89.80;;;;;;5007753;28;20048;-79
2022/01/25 05:46:20;;;;;;;13.57;6.93;;;5.50;89.10;;;;;;5056708;28;20774;-80
2022/01/25 05:48:38;;;;;;;11.98;5.85;;;5.50;89.10;;;;;;5053200;28;20500;-80
2022/01/25 05:51:06;;;;;;;12.52;6.25;;;5.50;89.20;;;;;;5056841;28;20040;-79
2022/01/25 05:53:33;;;;;;;14.05;7.03;;;5.50;89.30;;;;;;5023762;28;20051;-79
2022/01/25 05:56:00;;;;;;;13.35;6.75;;;5.50;90.00;;;;;;5040092;28;20115;-79
2022/01/25 05:58:27;;;;;;;13.13;6.10;;;5.50;89.30;;;;;;5040002;28;20090;-80
2022/01/25 06:00:54;;;;;;;11.68;5.97;;;5.50;89.30;;;;;;5040197;28;20048;-79
2022/01/25 06:03:21;;;;;;;13.88;7.43;;;5.50;89.30;;;;;;5023556;28;20044;-79
2022/01/25 06:05:49;;;;;;;13.57;6.72;;;5.50;89.30;;;;;;5039154;28;20131;-79
2022/01/25 06:08:16;;;;;;;15.07;6.70;;;5.50;89.80;;;;;;5022652;28;20489;-78
2022/01/25 06:10:43;;;;;;;15.65;8.27;;;5.50;89.20;;;;;;5006565;28;20045;-78
2022/01/25 06:13:11;;;;;;;21.60;11.07;;;5.50;89.20;;;;;;5039478;28;20066;-86
2022/01/25 06:15:38;;;;;;;20.67;9.27;;;5.50;89.10;;;;;;5040897;28;20075;-87
2022/01/25 06:18:05;;;;;;;17.20;8.77;;;5.50;89.10;;;;;;5023618;28;20488;-85
2022/01/25 06:20:33;;;;;;;15.45;8.90;;;5.50;89.10;;;;;;5007911;28;20139;-87
2022/01/25 06:23:00;;;;;;;15.27;7.43;;;5.40;89.10;;;;;;5024297;28;20040;-86
2022/01/25 06:25:28;;;;;;;15.60;6.97;;;5.50;89.10;;;;;;5040447;28;20377;-86
2022/01/25 06:27:57;;;;;;;15.18;7.72;;;5.50;89.00;;;;;;5009195;28;20053;-87
2022/01/25 06:30:24;;;;;;;15.38;8.00;;;5.50;89.00;;;;;;5007851;28;20047;-86
2022/01/25 06:32:51;;;;;;;14.63;6.97;;;5.50;89.00;;;;;;5040611;28;20074;-86
2022/01/25 06:35:19;;;;;;;14.27;7.70;;;5.50;89.00;;;;;;5036587;28;20049;-85
2022/01/25 06:37:46;;;;;;;14.07;6.97;;;5.50;88.90;;;;;;5020867;28;20473;-85
2022/01/25 06:40:16;;;;;;;13.38;7.00;;;5.50;89.00;;;;;;5020450;28;20049;-85
2022/01/25 06:42:43;;;;;;;14.00;6.63;;;5.50;89.00;;;;;;5039739;28;20131;-85
2022/01/25 06:45:15;;;;;;;13.45;6.63;;;5.50;89.00;;;;;;5023423;28;20567;-85
2022/01/25 06:47:43;;;;;;;13.63;6.47;;;5.40;89.00;;;;;;5056627;28;20044;-87
2022/01/25 06:50:12;;;;;;;15.77;7.22;;;5.40;89.00;;;;;;5024061;28;20044;-86
2022/01/25 06:52:42;;;;;;;14.40;7.22;;;5.40;89.00;;;;;;5040259;28;20134;-88
2022/01/25 06:55:19;;;;;;;12.95;6.45;;;5.50;89.00;;;;;;5041108;28;20037;-85
2022/01/25 06:57:47;;;;;;;17.08;8.85;;;5.40;89.00;;;;;;5023781;28;20139;-86
2022/01/25 07:00:21;;;;;;;16.77;7.78;;;5.40;88.90;;;;;;5039296;28;20044;-88
2022/01/25 07:02:48;;;;;;;17.77;8.68;;;5.40;88.80;;;;;;5041038;28;20158;-88
2022/01/25 07:05:16;;;;;;;16.40;8.00;;;5.40;88.90;;;;;;5040962;28;20048;-87
2022/01/25 07:07:44;;;;;;;15.88;7.47;;;5.40;88.90;;;;;;5024059;28;20116;-87
2022/01/25 07:10:17;;;;;;;15.30;7.22;;;5.40;88.90;;;;;;5009108;28;20121;-89
2022/01/25 07:12:45;;;;;;;16.63;8.20;;;5.40;88.90;;;;;;5039659;28;20040;-87
2022/01/25 07:15:13;;;;;;;15.82;8.45;;;5.40;88.90;;;;;;5039680;28;20052;-88
2022/01/25 07:17:41;;;;;;;14.45;7.25;;;5.40;88.90;;;;;;5040298;28;20047;-89
2022/01/25 07:20:10;;;;;;;16.02;7.45;;;5.40;88.90;;;;;;5039874;28;20101;-89
2022/01/25 07:22:39;;;;;;;13.48;6.57;;;5.40;88.90;;;;;;5039473;28;20102;-87
2022/01/25 07:25:08;;;;;;;14.65;6.55;;;5.40;88.90;;;;;;5023343;28;20048;-84
2022/01/25 07:27:35;;;;;;;13.98;7.07;;;5.40;88.90;;;;;;5039460;28;20041;-85
2022/01/25 07:30:04;;;;;;;13.23;5.68;;;5.40;88.90;;;;;;5038873;28;20044;-88
2022/01/25 07:32:32;;;;;;;14.13;6.45;;;5.40;88.90;;;;;;5055645;28;20063;-84
2022/01/25 07:35:05;;;;;;;13.13;6.10;;;5.40;88.90;;;;;;5055238;28;20055;-83
2022/01/25 07:37:34;;;;;;;14.13;6.40;;;5.40;88.80;;;;;;5039320;28;20102;-87
2022/01/25 07:40:05;;;;;;;13.38;6.60;;;5.50;88.90;;;;;;5055800;28;20144;-85
2022/01/25 07:42:37;;;;;;;13.40;5.97;;;5.40;88.80;;;;;;5039407;28;20420;-84
2022/01/25 07:45:17;;;;;;;14.13;7.22;;;5.50;88.90;;;;;;5041516;28;20175;-86
2022/01/25 07:48:06;;;;;;;20.65;8.77;;;5.40;88.90;;;;;;5013882;28;20047;-86
2022/01/25 07:50:35;;;;;;;17.17;8.13;;;5.40;88.80;;;;;;5055761;28;20094;-87
2022/01/25 07:53:05;;;;;;;16.25;7.78;;;5.40;88.80;;;;;;5007704;28;20534;-84
2022/01/25 07:55:32;;;;;;;17.05;8.27;;;5.40;88.90;;;;;;5055479;28;20048;-85
2022/01/25 07:57:59;;;;;;;14.05;6.22;;;5.40;88.90;;;;;;5038843;28;20094;-87
2022/01/25 08:00:27;;;;;;;15.45;7.20;;;5.40;88.90;;;;;;5022969;28;20485;-87
2022/01/25 08:02:54;;;;;;;13.40;6.65;;;5.40;88.90;;;;;;5023110;28;20041;-88
2022/01/25 08:05:24;;;;;;;16.25;7.88;;;5.40;88.90;;;;;;5023272;28;20076;-88
2022/01/25 08:07:56;;;;;;;18.00;9.27;;;5.40;88.90;;;;;;5040110;28;20048;-88
2022/01/25 08:10:26;;;;;;;15.75;8.20;;;5.40;88.90;;;;;;5039383;28;20055;-87
2022/01/25 08:12:59;;;;;;;16.60;8.43;;;5.40;88.90;;;;;;5039683;28;20049;-87
2022/01/25 08:15:34;;;;;;;15.18;8.02;;;5.40;88.90;;;;;;5039210;28;20541;-87
2022/01/25 08:18:01;;;;;;;18.17;9.40;;;5.40;88.80;;;;;;5038140;28;20076;-87
2022/01/25 08:20:29;;;;;;;14.68;7.68;;;5.40;88.80;;;;;;5022379;28;20504;-87
2022/01/25 08:22:59;;;;;;;14.10;7.47;;;5.40;88.80;;;;;;5007710;28;20072;-88
2022/01/25 08:25:34;;;;;;;18.10;9.48;;;5.40;88.90;;;;;;5024584;28;20056;-88
2022/01/25 08:28:06;;;;;;;;;;;5.40;88.80;;;;;;5056803;28;20076;-88
2022/01/25 08:30:36;;;;;;;16.08;7.85;;;5.30;88.90;;;;;;5055380;28;19970;-88
2022/01/25 08:33:03;;;;;;;17.15;8.88;;;5.30;88.90;;;;;;5022617;28;20465;-87
2022/01/25 08:35:35;;;;;;;16.50;7.63;;;5.30;88.90;;;;;;5037896;28;20049;-87
2022/01/25 08:38:09;;;;;;;14.35;7.35;;;5.30;88.80;;;;;;5009474;28;20044;-87
2022/01/25 08:40:41;;;;;;;15.20;7.22;;;5.30;88.80;;;;;;5041712;28;20047;-86
2022/01/25 08:43:13;;;;;;;15.48;7.47;;;5.30;88.80;;;;;;5041636;28;20080;-88
2022/01/25 08:45:45;;;;;;;15.43;7.73;;;5.30;88.70;;;;;;5011238;28;20041;-87
2022/01/25 08:48:12;;;;;;;12.90;6.35;;;5.30;88.70;;;;;;5041722;28;20051;-88
2022/01/25 08:50:44;;;;;;;15.88;6.22;;;5.40;88.80;;;;;;5027271;28;20051;-87
2022/01/25 08:53:14;;;;;;;15.43;7.45;;;5.40;88.80;;;;;;5058550;28;20067;-88
2022/01/25 08:55:42;;;;;;;14.68;7.35;;;5.40;88.70;;;;;;5025617;28;20052;-87
2022/01/25 08:58:13;;;;;;;18.95;10.02;;;5.40;88.70;;;;;;5027071;28;20045;-87
2022/01/25 09:00:40;;;;;;;16.30;8.25;;;5.40;88.60;;;;;;5042130;28;20074;-86
2022/01/25 09:03:07;;;;;;;16.95;7.82;;;5.40;88.60;;;;;;5042011;28;20139;-87
2022/01/25 09:05:38;;;;;;;16.58;7.95;;;5.30;88.60;;;;;;5027290;28;20048;-86
2022/01/25 09:08:06;;;;;;;15.32;7.35;;;5.40;88.70;;;;;;5025747;28;20114;-80
2022/01/25 09:10:34;;;;;;;14.98;7.30;;;5.40;89.30;;;;;;5040788;28;20125;-78
2022/01/25 09:13:01;;;;;;;14.70;6.70;;;5.40;88.60;;;;;;5057588;28;20124;-79
2022/01/25 09:15:30;;;;;;;13.98;6.13;;;5.40;88.60;;;;;;5040685;28;20041;-78
2022/01/25 09:17:57;;;;;;;14.18;6.68;;;5.40;88.60;;;;;;5025228;28;20067;-78
2022/01/25 09:20:25;;;;;;;15.90;7.30;;;5.40;88.60;;;;;;5040712;28;20067;-80
2022/01/25 09:22:52;;;;;;;12.20;6.30;;;5.40;88.50;;;;;;5057053;28;20052;-79
2022/01/25 09:25:30;;;;;;;13.15;6.57;;;5.40;88.50;;;;;;5043739;28;20105;-79
2022/01/25 09:27:57;;;;;;;11.60;5.32;;;5.40;88.60;;;;;;5040342;28;20511;-79
2022/01/25 09:30:24;;;;;;;11.48;5.57;;;5.50;88.60;;;;;;5008021;28;20131;-79
2022/01/25 09:32:52;;;;;;;12.48;5.95;;;5.50;88.50;;;;;;5007664;28;20052;-79
2022/01/25 09:35:19;;;;;;;12.82;6.25;;;5.50;88.50;;;;;;5036917;28;20048;-79
2022/01/25 09:37:46;;;;;;;13.50;6.28;;;5.50;88.40;;;;;;5021015;28;20048;-78
2022/01/25 09:40:14;;;;;;;14.15;6.80;;;5.50;88.50;;;;;;5053333;28;20404;-79
2022/01/25 09:42:41;;;;;;;13.52;6.88;;;5.60;88.50;;;;;;5020803;28;20136;-79
2022/01/25 09:45:09;;;;;;;14.15;6.95;;;5.50;88.40;;;;;;5036643;28;20106;-79
2022/01/25 09:47:40;;;;;;;16.23;8.00;;;5.60;88.40;;;;;;5004437;28;20049;-78
2022/01/25 09:50:07;;;;;;;14.55;7.40;;;5.50;88.30;;;;;;5036996;28;20140;-78
2022/01/25 09:52:35;;;;;;;15.13;7.13;;;5.50;88.40;;;;;;5020209;28;20083;-79
2022/01/25 09:55:12;;;;;;;16.05;7.93;;;5.50;88.90;;;;;;5020390;28;20059;-79
2022/01/25 09:57:40;;;;;;;14.10;7.90;;;5.50;88.30;;;;;;5036464;28;20051;-79
2022/01/25 10:00:09;;;;;;;14.82;6.75;;;5.50;88.40;;;;;;5004137;28;20041;-79
2022/01/25 10:02:50;;;;;;;15.05;7.40;;;5.50;88.40;;;;;;5036699;28;20056;-79
2022/01/25 10:05:37;;;;;;;14.25;6.57;;;5.50;88.40;;;;;;5052595;28;20040;-79
2022/01/25 10:08:07;;;;;;;13.55;7.30;;;5.50;88.30;;;;;;5035965;28;20131;-80
2022/01/25 10:10:38;;;;;;;11.80;6.22;;;5.50;88.30;;;;;;5035530;28;20053;-79
2022/01/25 10:13:21;;;;;;;13.65;6.35;;;5.50;88.30;;;;;;5036343;28;20409;-79
2022/01/25 10:15:50;;;;;;;15.00;6.70;;;5.60;88.30;;;;;;5035971;28;20077;-79
2022/01/25 10:18:21;;;;;;;14.65;7.25;;;5.50;88.30;;;;;;5036529;28;20489;-79
2022/01/25 10:20:50;;;;;;;13.35;6.45;;;5.50;88.30;;;;;;5035897;28;20047;-79
2022/01/25 10:23:30;;;;;;;16.60;8.38;;;5.50;88.30;;;;;;5020040;28;20087;-79
2022/01/25 10:26:00;;;;;;;15.27;7.25;;;5.60;88.30;;;;;;5020529;28;20056;-80
2022/01/25 10:28:29;;;;;;;13.77;6.50;;;5.60;88.30;;;;;;5035474;28;20732;-79
2022/01/25 10:31:06;;;;;;;14.82;6.30;;;5.60;88.30;;;;;;5035395;28;20044;-79
2022/01/25 10:33:39;;;;;;;15.63;7.20;;;5.60;88.20;;;;;;5051660;28;20052;-80
2022/01/25 10:36:29;;;;;;;12.95;5.90;;;5.60;88.00;;;;;;5050134;28;20049;-79
2022/01/25 10:38:56;;;;;;;15.10;7.65;;;5.60;88.00;;;;;;5036151;28;20037;-79
2022/01/25 10:41:27;;;;;;;15.55;6.93;;;5.60;88.00;;;;;;5019422;28;20076;-80
2022/01/25 10:43:56;;;;;;;17.88;8.20;;;5.60;88.00;;;;;;5035600;28;20142;-80
2022/01/25 10:46:31;;;;;;;15.77;7.25;;;5.60;88.00;;;;;;5035446;28;20049;-79
2022/01/25 10:49:15;;;;;;;16.88;7.95;;;5.60;88.00;;;;;;5035659;28;20821;-78
2022/01/25 10:51:48;;;;;;;17.08;7.63;;;5.60;87.90;;;;;;5035864;28;20550;-80
2022/01/25 10:54:24;;;;;;;18.20;8.60;;;5.60;88.00;;;;;;5051915;28;20045;-80
2022/01/25 10:56:54;;;;;;;15.15;7.47;;;5.60;88.00;;;;;;5035991;28;20036;-80
2022/01/25 10:59:22;;;;;;;17.52;7.88;;;5.60;88.00;;;;;;5035572;28;20044;-79
2022/01/25 11:01:55;;;;;;;16.55;7.93;;;5.60;87.90;;;;;;5051928;28;20045;-79
2022/01/25 11:04:26;;;;;;;18.83;8.45;;;5.70;88.00;;;;;;5035782;28;20504;-79
2022/01/25 11:06:57;;;;;;;13.90;6.72;;;5.60;87.90;;;;;;5051994;28;20481;-79
2022/01/25 11:09:26;;;;;;;16.52;7.55;;;5.60;88.00;;;;;;5035457;28;20053;-79
2022/01/25 11:11:57;;;;;;;18.83;8.70;;;5.60;88.00;;;;;;5051671;28;20136;-79
2022/01/25 11:17:09;;;;;;;15.95;7.40;;;5.60;88.10;;;;;;5023056;28;20045;-79
2022/01/25 11:19:38;;;;;;;16.88;8.75;;;5.60;88.10;;;;;;5018750;28;20041;-79
2022/01/25 11:22:10;;;;;;;14.82;7.32;;;5.60;88.10;;;;;;5035269;28;20053;-79
2022/01/25 11:24:38;;;;;;;16.02;8.10;;;5.60;88.10;;;;;;5035050;28;20049;-79
2022/01/25 11:27:07;;;;;;;14.60;7.22;;;5.60;88.10;;;;;;5034997;28;20041;-80
2022/01/25 11:29:37;;;;;;;18.67;9.10;;;5.60;88.10;;;;;;5019397;28;20037;-79
2022/01/25 11:32:10;;;;;;;15.93;6.57;;;5.60;88.00;;;;;;5035062;28;20045;-79
2022/01/25 11:34:39;;;;;;;19.25;8.68;;;5.60;88.00;;;;;;5037896;28;20147;-79
2022/01/25 11:37:10;;;;;;;18.25;9.40;;;5.50;87.90;;;;;;5054749;28;20048;-79
2022/01/25 11:39:47;;;;;;;18.10;8.85;;;5.50;88.00;;;;;;5055108;28;20109;-78
2022/01/25 11:42:25;;;;;;;17.30;8.23;;;5.50;88.00;;;;;;5054508;28;20041;-78
2022/01/25 11:44:57;;;;;;;16.65;8.10;;;5.50;88.00;;;;;;5054692;28;20071;-78
2022/01/25 11:47:37;;;;;;;17.67;8.60;;;5.60;88.00;;;;;;5037903;28;20477;-77
2022/01/25 11:50:10;;;;;;;14.00;6.95;;;5.60;87.90;;;;;;5053719;28;20169;-76
2022/01/25 11:52:50;;;;;;;15.57;7.60;;;5.60;88.00;;;;;;5034746;28;20063;-79
2022/01/25 11:55:21;;;;;;;13.32;6.78;;;5.60;87.80;;;;;;5034794;28;20047;-77
2022/01/25 11:58:10;;;;;;;14.10;6.55;;;5.60;88.00;;;;;;5018379;28;20124;-76
2022/01/25 12:00:48;;;;;;;13.95;6.53;;;5.70;87.80;;;;;;5034424;28;20120;-80
2022/01/25 12:03:31;;;;;;;;;;;5.70;87.80;;;;;;5018742;28;20067;-76
2022/01/25 12:06:06;;;;;;;12.38;4.70;;;5.70;87.90;;;;;;5034804;28;19927;-77
2022/01/25 12:11:30;;;;;;;13.98;6.90;;;5.70;87.80;;;;;;5033944;28;20139;-80
2022/01/25 12:14:18;;;;;;;16.00;7.28;;;5.60;87.70;;;;;;5051839;28;20063;-80
2022/01/25 12:16:47;;;;;;;15.35;6.20;;;5.70;87.80;;;;;;5021116;28;20087;-78
2022/01/25 12:19:18;;;;;;;14.55;6.32;;;5.60;87.80;;;;;;5050869;28;20051;-77
2022/01/25 12:21:54;;;;;;;14.00;7.18;;;5.60;88.50;;;;;;5041652;28;20455;-79
2022/01/25 12:24:40;;;;;;;16.80;8.27;;;5.60;87.90;;;;;;5058404;28;20045;-78
2022/01/25 12:29:42;;;;;;;13.75;6.38;;;5.60;88.00;;;;;;5058546;28;20091;-81
2022/01/25 12:32:29;;;;;;;16.58;7.88;;;5.60;88.00;;;;;;5058062;28;20050;-81
2022/01/25 12:35:11;;;;;;;12.63;5.40;;;5.60;87.90;;;;;;5041456;28;20060;-82
2022/01/25 12:37:44;;;;;;;14.20;6.25;;;5.60;87.90;;;;;;5041804;28;20867;-80
2022/01/25 12:40:28;;;;;;;12.43;6.00;;;5.60;87.80;;;;;;5058619;28;20082;-86
2022/01/25 12:43:10;;;;;;;10.77;5.00;;;5.70;87.80;;;;;;5058602;28;20143;-85
2022/01/25 12:45:48;;;;;;;12.77;5.75;;;5.60;87.90;;;;;;5058604;28;20055;-85
2022/01/25 12:48:19;;;;;;;13.10;5.85;;;5.70;87.80;;;;;;5041898;28;20496;-85
2022/01/25 12:50:52;;;;;;;12.57;5.78;;;5.70;87.80;;;;;;5057675;28;20076;-84
2022/01/25 12:53:25;;;;;;;14.20;7.13;;;5.70;87.70;;;;;;5075793;28;20519;-85
2022/01/25 12:55:56;;;;;;;14.77;7.07;;;5.70;87.60;;;;;;5041127;28;20381;-84
2022/01/25 12:58:26;;;;;;;16.90;7.30;;;5.70;87.70;;;;;;5058043;28;20162;-83
2022/01/25 13:00:56;;;;;;;14.75;7.75;;;5.70;87.60;;;;;;5041394;28;20182;-83
2022/01/25 13:03:30;;;;;;;17.45;8.55;;;5.60;87.60;;;;;;5041808;28;20048;-83
2022/01/25 13:06:16;;;;;;;15.05;7.03;;;5.60;87.70;;;;;;5058296;28;20427;-84
2022/01/25 13:09:08;;;;;;;15.05;6.50;;;5.60;87.70;;;;;;5058131;28;20043;-82
2022/01/25 13:11:49;;;;;;;14.18;6.85;;;5.60;87.70;;;;;;5054168;28;20093;-82
2022/01/25 13:17:02;;;;;;;11.63;6.35;;;5.60;87.80;;;;;;5057499;28;20481;-86
2022/01/25 13:19:41;;;;;;;12.30;5.40;;;5.60;87.70;;;;;;5040800;28;20040;-86
2022/01/25 13:22:13;;;;;;;13.07;5.25;;;5.60;87.70;;;;;;5040842;28;20110;-86
2022/01/25 13:24:58;;;;;;;12.65;6.57;;;5.60;87.60;;;;;;5058532;28;20051;-85
2022/01/25 13:27:34;;;;;;;15.52;8.15;;;5.60;87.60;;;;;;5055820;28;20044;-86
2022/01/25 13:32:52;;;;;;;15.50;7.70;;;5.50;87.60;;;;;;5057497;28;20503;-84
2022/01/25 13:38:24;;;;;;;15.68;6.78;;;5.50;87.70;;;;;;5057557;28;20154;-82
2022/01/25 13:46:29;;;;;;;12.43;6.32;;;5.50;87.70;;;;;;5057106;28;20036;-82
2022/01/25 13:49:04;;;;;;;13.82;6.32;;;5.60;87.70;;;;;;5041227;28;20131;-84
2022/01/25 13:51:49;;;;;;;13.32;6.35;;;5.60;87.80;;;;;;5056617;28;20040;-81
2022/01/25 13:54:27;;;;;;;13.02;5.65;;;5.60;87.70;;;;;;5040048;28;20408;-82
2022/01/25 13:56:56;;;;;;;16.27;7.85;;;5.60;87.60;;;;;;5056375;28;20106;-82
2022/01/25 13:59:25;;;;;;;15.13;6.22;;;5.60;87.60;;;;;;5039862;28;20091;-83
2022/01/25 14:01:53;;;;;;;14.55;7.20;;;5.60;87.50;;;;;;5036595;28;20068;-85
2022/01/25 14:04:24;;;;;;;14.57;6.75;;;5.60;87.60;;;;;;5037110;28;20128;-83
2022/01/25 14:06:57;;;;;;;14.03;6.30;;;5.60;87.60;;;;;;5037753;28;20069;-83
2022/01/25 14:09:30;;;;;;;15.90;8.73;;;5.60;87.70;;;;;;5037092;28;20052;-83
2022/01/25 14:23:27;;;;;;;12.85;6.20;;;5.50;87.60;;;;;;5036944;28;20047;-86
2022/01/25 14:26:06;;;;;;;13.63;6.28;;;5.60;87.60;;;;;;5036581;28;20099;-87
2022/01/25 14:28:41;;;;;;;13.95;6.75;;;5.50;87.60;;;;;;5036448;28;20408;-87
2022/01/25 14:31:20;;;;;;;13.38;6.00;;;5.50;87.70;;;;;;5036718;28;20048;-84
2022/01/25 14:33:59;;;;;;;14.77;6.18;;;5.50;87.60;;;;;;5029970;28;20041;-82
2022/01/25 14:36:28;;;;;;;12.82;5.32;;;5.50;87.70;;;;;;5052896;28;20054;-85
2022/01/25 14:38:56;;;;;;;12.23;5.47;;;5.50;87.70;;;;;;5019312;28;20051;-87
2022/01/25 14:41:33;;;;;;;12.52;5.63;;;5.50;87.70;;;;;;5017370;28;20475;-87
2022/01/25 14:44:24;;;;;;;12.48;5.53;;;5.50;87.50;;;;;;5049408;28;20081;-86
2022/01/25 14:46:53;;;;;;;11.90;6.63;;;5.60;87.50;;;;;;5020689;28;20056;-88
2022/01/25 14:49:26;;;;;;;14.07;6.97;;;5.50;87.60;;;;;;5020907;28;20227;-89
2022/01/25 14:51:59;;;;;;;14.60;6.53;;;5.40;87.50;;;;;;5021156;28;20056;-92
2022/01/25 14:54:38;;;;;;;13.05;6.30;;;5.40;87.60;;;;;;5037553;28;20067;-94
2022/01/25 14:57:10;;;;;;;11.70;5.45;;;5.40;87.60;;;;;;5020550;28;20053;-87
2022/01/25 14:59:46;;;;;;;13.02;5.35;;;5.40;87.70;;;;;;5034631;28;20099;-87
2022/01/25 15:02:19;;;;;;;11.75;5.90;;;5.40;87.70;;;;;;5040225;28;20048;-84
2022/01/25 15:04:58;;;;;;;10.55;5.03;;;5.40;87.70;;;;;;5040181;28;20044;-86
2022/01/25 15:07:33;;;;;;;13.10;6.10;;;5.40;87.70;;;;;;5056236;28;20052;-90
2022/01/25 15:10:05;;;;;;;11.50;5.50;;;5.40;87.80;;;;;;5035915;28;20193;-85
2022/01/25 15:12:41;;;;;;;11.75;5.53;;;5.40;87.80;;;;;;5053803;28;20079;-86
2022/01/25 15:15:45;;;;;;;11.77;4.97;;;5.40;87.80;;;;;;5036069;28;20051;-86
2022/01/25 15:17:56;;;;;;;11.65;5.63;;;5.40;87.80;;;;;;5022618;28;20072;-90